Time;durP1;ratioP1;P1;durP2;ratioP2;P2;SDS_P1;SDS_P2;PMS_P1;PMS_P2;Temp;Humidity;BMP_temperature;BMP_pressure;BME280_temperature;BME280_humidity;BME280_pressure;Samples;Min_cycle;Max_cycle;Signal;HPM_P1;HPM_P2
2023/01/23 00:00:38;;;;;;;21.00;11.35;;;-0.80;99.90;;;;;;5085036;28;20039;-32
2023/01/23 00:03:03;;;;;;;19.15;10.55;;;-0.90;99.90;;;;;;5084393;28;20440;-35
2023/01/23 00:05:29;;;;;;;27.33;13.32;;;-0.90;99.90;;;;;;5079330;28;20055;-35
2023/01/23 00:07:54;;;;;;;25.48;10.65;;;-0.90;99.90;;;;;;5080069;28;20048;-33
2023/01/23 00:10:20;;;;;;;21.10;10.95;;;-0.90;99.90;;;;;;5086116;28;20056;-34
2023/01/23 00:12:49;;;;;;;23.23;11.15;;;-0.90;99.90;;;;;;5093015;28;20047;-33
2023/01/23 00:15:15;;;;;;;29.15;11.13;;;-0.90;99.90;;;;;;5088882;28;20028;-34
2023/01/23 00:17:41;;;;;;;27.83;12.38;;;-0.90;99.90;;;;;;5097417;28;20393;-32
2023/01/23 00:20:11;;;;;;;20.33;10.98;;;-0.90;99.90;;;;;;5088634;28;20017;-34
2023/01/23 00:22:37;;;;;;;17.10;10.27;;;-0.90;99.90;;;;;;5090736;28;20472;-33
2023/01/23 00:25:04;;;;;;;19.02;10.23;;;-0.90;99.90;;;;;;5097628;28;20028;-36
2023/01/23 00:27:30;;;;;;;20.23;10.70;;;-0.80;99.90;;;;;;5093939;28;20037;-34
2023/01/23 00:29:55;;;;;;;20.85;10.38;;;-0.80;99.90;;;;;;5095566;28;20111;-35
2023/01/23 00:32:21;;;;;;;22.52;12.13;;;-0.80;99.90;;;;;;5087685;28;20124;-32
2023/01/23 00:34:47;;;;;;;21.60;11.75;;;-0.80;99.90;;;;;;5100616;28;20040;-31
2023/01/23 00:37:13;;;;;;;20.45;10.80;;;-0.80;99.90;;;;;;5094874;28;20384;-32
2023/01/23 00:39:39;;;;;;;23.63;11.23;;;-0.80;99.90;;;;;;5074061;28;20024;-32
2023/01/23 00:42:05;;;;;;;21.58;12.10;;;-0.80;99.90;;;;;;5089310;28;20028;-34
2023/01/23 00:44:31;;;;;;;22.17;11.48;;;-0.80;99.90;;;;;;5102699;28;20109;-34
2023/01/23 00:46:57;;;;;;;21.73;11.00;;;-0.90;99.90;;;;;;5088551;28;20426;-32
2023/01/23 00:49:23;;;;;;;26.75;13.77;;;-0.80;99.90;;;;;;5095495;28;20040;-34
2023/01/23 00:51:49;;;;;;;20.92;11.20;;;-0.80;99.90;;;;;;5092605;28;20416;-33
2023/01/23 00:54:15;;;;;;;26.25;12.27;;;-0.70;99.90;;;;;;5078774;28;20016;-32
2023/01/23 00:56:41;;;;;;;28.10;11.82;;;-0.70;99.90;;;;;;5086930;28;20053;-35
2023/01/23 00:59:06;;;;;;;23.75;12.25;;;-0.70;99.90;;;;;;5095603;28;20149;-32
2023/01/23 01:01:32;;;;;;;28.02;12.18;;;-0.80;99.90;;;;;;5094074;28;20507;-34
2023/01/23 01:03:58;;;;;;;25.20;12.50;;;-0.80;99.90;;;;;;5093368;28;20465;-32
2023/01/23 01:06:24;;;;;;;32.05;13.82;;;-0.90;99.90;;;;;;5091495;28;20027;-32
2023/01/23 01:08:50;;;;;;;24.92;12.25;;;-0.90;99.90;;;;;;5093564;28;20048;-32
2023/01/23 01:11:16;;;;;;;25.92;13.15;;;-0.90;99.90;;;;;;5091766;28;20511;-33
2023/01/23 01:13:43;;;;;;;21.15;11.07;;;-0.80;99.90;;;;;;5086913;28;20052;-34
2023/01/23 01:16:09;;;;;;;30.25;15.57;;;-0.90;99.90;;;;;;5098043;28;20078;-33
2023/01/23 01:18:35;;;;;;;28.98;13.02;;;-0.80;99.90;;;;;;5091003;28;20099;-33
2023/01/23 01:21:06;;;;;;;25.75;12.02;;;-0.80;99.90;;;;;;5092933;28;20028;-33
2023/01/23 01:23:31;;;;;;;27.92;13.18;;;-0.80;99.90;;;;;;5088021;28;20019;-32
2023/01/23 01:25:58;;;;;;;30.20;12.40;;;-0.80;99.90;;;;;;5096411;28;20039;-36
2023/01/23 01:28:26;;;;;;;33.92;15.65;;;-0.90;99.90;;;;;;5091994;28;20031;-34
2023/01/23 01:30:51;;;;;;;30.95;13.40;;;-1.00;99.90;;;;;;5086890;28;20089;-37
2023/01/23 01:33:17;;;;;;;28.83;13.98;;;-1.20;99.90;;;;;;5092587;28;20044;-33
2023/01/23 01:35:43;;;;;;;27.67;12.73;;;-1.20;99.90;;;;;;5094508;28;20601;-32
2023/01/23 01:38:08;;;;;;;33.40;15.40;;;-1.20;99.90;;;;;;5096885;28;20072;-32
2023/01/23 01:40:35;;;;;;;31.60;14.85;;;-1.20;99.90;;;;;;5092675;28;20103;-32
2023/01/23 01:43:07;;;;;;;31.27;13.32;;;-1.20;99.90;;;;;;5095477;28;20469;-32
2023/01/23 01:46:10;;;;;;;36.35;14.82;;;-1.20;99.90;;;;;;5092805;28;20071;-33
2023/01/23 01:48:58;;;;;;;34.78;13.52;;;-1.20;99.90;;;;;;5084882;28;20043;-33
2023/01/23 01:51:29;;;;;;;26.65;12.18;;;-1.20;99.90;;;;;;5091658;28;20027;-32
2023/01/23 01:54:06;;;;;;;30.08;13.60;;;-1.10;99.90;;;;;;5089478;28;20062;-34
2023/01/23 01:56:36;;;;;;;24.27;13.20;;;-1.10;99.90;;;;;;5094776;28;20614;-34
2023/01/23 01:59:02;;;;;;;26.52;12.50;;;-1.10;99.90;;;;;;5089203;28;20114;-32
2023/01/23 02:01:28;;;;;;;27.55;11.60;;;-1.10;99.90;;;;;;5094068;28;20035;-41
2023/01/23 02:03:54;;;;;;;25.70;10.18;;;-1.10;99.90;;;;;;5071488;28;20028;-39
2023/01/23 02:06:20;;;;;;;20.15;10.82;;;-1.10;99.90;;;;;;5087909;28;20032;-42
2023/01/23 02:09:04;;;;;;;16.48;9.00;;;-1.20;99.90;;;;;;5079112;28;20055;-42
2023/01/23 02:11:30;;;;;;;24.67;10.98;;;-1.10;99.90;;;;;;5093526;28;20039;-42
2023/01/23 02:13:56;;;;;;;19.50;9.82;;;-1.10;99.90;;;;;;5093444;28;20032;-43
2023/01/23 02:16:32;;;;;;;21.15;9.98;;;-1.10;99.90;;;;;;5093676;28;20054;-41
2023/01/23 02:19:03;;;;;;;20.33;10.60;;;-1.00;99.90;;;;;;5094437;28;20028;-41
2023/01/23 02:21:29;;;;;;;21.55;10.55;;;-1.00;99.90;;;;;;5086939;28;20024;-42
2023/01/23 02:24:03;;;;;;;14.55;8.57;;;-1.00;99.90;;;;;;5094897;28;20115;-41
2023/01/23 02:26:41;;;;;;;20.75;9.25;;;-1.00;99.90;;;;;;5094975;28;20020;-40
2023/01/23 02:29:07;;;;;;;19.63;9.55;;;-0.90;99.90;;;;;;5087545;28;20047;-41
2023/01/23 02:31:33;;;;;;;24.20;8.77;;;-1.00;99.90;;;;;;5095218;28;20506;-35
2023/01/23 02:33:59;;;;;;;20.45;11.23;;;-1.00;99.90;;;;;;5090865;28;20034;-42
2023/01/23 02:36:31;;;;;;;21.00;9.38;;;-1.00;99.90;;;;;;5093735;28;20436;-41
2023/01/23 02:39:12;;;;;;;21.65;9.68;;;-1.10;99.90;;;;;;5087825;28;20043;-43
2023/01/23 02:41:43;;;;;;;16.52;8.60;;;-1.40;99.90;;;;;;5091612;28;20016;-40
2023/01/23 02:44:27;;;;;;;19.67;8.50;;;-1.40;99.90;;;;;;5093518;28;20020;-39
2023/01/23 02:47:01;;;;;;;20.15;9.90;;;-1.50;99.90;;;;;;5085203;28;20514;-42
2023/01/23 02:49:27;;;;;;;20.58;11.13;;;-1.50;99.90;;;;;;5086699;28;20469;-42
2023/01/23 02:51:54;;;;;;;18.83;9.52;;;-1.50;99.90;;;;;;5090174;28;20028;-41
2023/01/23 02:54:21;;;;;;;24.02;9.30;;;-1.60;99.90;;;;;;5089432;28;20036;-42
2023/01/23 02:56:46;;;;;;;15.82;8.73;;;-1.60;99.90;;;;;;5087356;28;20024;-41
2023/01/23 03:01:57;;;;;;;19.70;9.82;;;-1.60;99.90;;;;;;5087184;28;20643;-42
2023/01/23 03:04:23;;;;;;;23.75;11.13;;;-1.70;99.90;;;;;;5073623;28;20031;-39
2023/01/23 03:06:49;;;;;;;28.65;11.82;;;-1.80;99.90;;;;;;5096809;28;20032;-40
2023/01/23 03:09:16;;;;;;;23.58;11.43;;;-1.80;99.90;;;;;;5088868;28;20454;-39
2023/01/23 03:11:43;;;;;;;24.25;10.05;;;-1.90;99.90;;;;;;5086965;28;20032;-40
2023/01/23 03:14:12;;;;;;;23.67;11.37;;;-1.90;99.90;;;;;;5086269;28;20042;-39
2023/01/23 03:16:39;;;;;;;27.27;12.07;;;-1.90;99.90;;;;;;5096820;28;20075;-39
2023/01/23 03:19:07;;;;;;;23.17;10.25;;;-1.80;99.90;;;;;;5088131;28;20027;-42
2023/01/23 03:21:36;;;;;;;24.58;11.27;;;-1.80;99.90;;;;;;5095260;28;20104;-42
2023/01/23 03:24:04;;;;;;;25.40;10.82;;;-1.80;99.90;;;;;;5088502;28;20114;-36
2023/01/23 03:26:30;;;;;;;27.05;12.02;;;-1.80;99.90;;;;;;5092568;28;20060;-40
2023/01/23 03:31:40;;;;;;;24.38;10.73;;;-1.80;99.90;;;;;;5086994;28;20070;-38
2023/01/23 03:34:06;;;;;;;17.67;9.27;;;-1.80;99.90;;;;;;5083013;28;20028;-42
2023/01/23 03:36:31;;;;;;;21.10;10.25;;;-1.80;99.90;;;;;;5093683;28;20470;-43
2023/01/23 03:41:44;;;;;;;21.42;9.73;;;-1.80;99.90;;;;;;5098652;28;20051;-42
2023/01/23 03:44:10;;;;;;;21.40;9.52;;;-1.80;99.90;;;;;;5085898;28;20024;-39
2023/01/23 03:46:35;;;;;;;20.52;8.80;;;-1.80;99.90;;;;;;5094911;28;20397;-43
2023/01/23 03:49:02;;;;;;;23.10;9.50;;;-1.80;99.90;;;;;;5093093;28;20024;-43
2023/01/23 03:51:27;;;;;;;17.45;7.85;;;-1.80;99.90;;;;;;5096119;28;20031;-42
2023/01/23 03:53:53;;;;;;;22.27;9.55;;;-1.70;99.90;;;;;;5095306;28;20485;-38
2023/01/23 03:56:18;;;;;;;19.33;8.70;;;-1.80;99.90;;;;;;5094837;28;20028;-42
2023/01/23 03:58:44;;;;;;;16.13;6.72;;;-1.70;99.90;;;;;;5094212;28;20040;-38
2023/01/23 04:01:11;;;;;;;20.17;8.25;;;-1.70;99.90;;;;;;5097450;28;20036;-42
2023/01/23 04:03:36;;;;;;;26.98;11.45;;;-1.70;99.90;;;;;;5082771;28;20385;-42
2023/01/23 04:06:02;;;;;;;20.80;8.90;;;-1.90;99.90;;;;;;5091362;28;20031;-42
2023/01/23 04:08:28;;;;;;;20.17;9.73;;;-2.10;99.90;;;;;;5086730;28;20062;-41
2023/01/23 04:11:05;;;;;;;17.40;8.32;;;-2.10;99.90;;;;;;5094145;28;20032;-42
2023/01/23 04:13:31;;;;;;;19.08;8.90;;;-2.00;99.90;;;;;;5087062;28;20043;-42
2023/01/23 04:15:56;;;;;;;19.10;10.05;;;-2.00;99.90;;;;;;5093894;28;20024;-41
2023/01/23 04:18:22;;;;;;;16.75;8.27;;;-2.00;99.90;;;;;;5093080;28;20137;-41
2023/01/23 04:20:48;;;;;;;22.05;8.82;;;-2.00;99.90;;;;;;5096840;28;20389;-40
2023/01/23 04:23:13;;;;;;;19.50;9.43;;;-2.10;99.90;;;;;;5090758;28;20549;-42
2023/01/23 04:25:39;;;;;;;21.38;9.45;;;-2.00;99.90;;;;;;5092245;28;20043;-38
2023/01/23 04:28:04;;;;;;;15.25;8.93;;;-2.00;99.90;;;;;;5094245;28;20039;-41
2023/01/23 04:30:30;;;;;;;23.05;9.60;;;-1.90;99.90;;;;;;5091635;28;20516;-41
2023/01/23 04:32:55;;;;;;;19.90;9.45;;;-1.90;99.90;;;;;;5090785;28;20400;-37
2023/01/23 04:35:21;;;;;;;15.70;7.93;;;-1.80;99.90;;;;;;5093905;28;20498;-41
2023/01/23 04:37:47;;;;;;;23.00;10.02;;;-1.80;99.90;;;;;;5095498;28;20027;-41
2023/01/23 04:40:12;;;;;;;16.48;7.90;;;-1.80;99.90;;;;;;5094118;28;20032;-42
2023/01/23 04:42:38;;;;;;;23.00;9.65;;;-1.80;99.90;;;;;;5077329;28;20026;-35
2023/01/23 04:45:04;;;;;;;17.75;9.18;;;-1.80;99.90;;;;;;5089241;28;20178;-43
2023/01/23 04:47:29;;;;;;;22.65;9.13;;;-1.70;99.90;;;;;;5094260;28;20042;-42
2023/01/23 04:49:55;;;;;;;17.70;8.80;;;-1.70;99.90;;;;;;5089931;28;20555;-41
2023/01/23 04:52:20;;;;;;;18.25;8.40;;;-1.70;99.90;;;;;;5086569;28;20028;-42
2023/01/23 04:54:46;;;;;;;14.15;8.20;;;-1.80;99.90;;;;;;5091543;28;20051;-41
2023/01/23 04:57:12;;;;;;;22.45;9.40;;;-1.80;99.90;;;;;;5088916;28;20430;-41
2023/01/23 04:59:37;;;;;;;26.00;10.18;;;-1.80;99.90;;;;;;5090170;28;20428;-41
2023/01/23 05:02:03;;;;;;;22.48;10.52;;;-1.80;99.90;;;;;;5086183;28;20039;-42
2023/01/23 05:04:28;;;;;;;15.27;7.95;;;-1.80;99.90;;;;;;5087978;28;20421;-41
2023/01/23 05:06:54;;;;;;;24.38;10.55;;;-1.70;99.90;;;;;;5091745;28;20024;-42
2023/01/23 05:09:19;;;;;;;27.05;12.70;;;-1.70;99.90;;;;;;5090243;28;20408;-42
2023/01/23 05:11:45;;;;;;;26.92;11.40;;;-1.70;99.90;;;;;;5092613;28;20042;-41
2023/01/23 05:14:11;;;;;;;27.80;11.32;;;-1.70;99.90;;;;;;5094335;28;20033;-40
2023/01/23 05:16:36;;;;;;;24.20;10.48;;;-1.70;99.90;;;;;;5094042;28;20554;-40
2023/01/23 05:19:02;;;;;;;27.02;12.23;;;-1.70;99.90;;;;;;5095763;28;20024;-42
2023/01/23 05:21:27;;;;;;;27.00;10.65;;;-1.70;99.90;;;;;;5091905;28;20473;-41
2023/01/23 05:23:53;;;;;;;28.50;11.32;;;-1.70;99.90;;;;;;5094453;28;20020;-43
2023/01/23 05:26:19;;;;;;;31.92;12.88;;;-1.70;99.90;;;;;;5088036;28;20023;-40
2023/01/23 05:28:45;;;;;;;26.92;12.35;;;-1.70;99.90;;;;;;5094733;28;20071;-42
2023/01/23 05:31:12;;;;;;;25.23;12.13;;;-1.70;99.90;;;;;;5091270;28;20119;-40
2023/01/23 05:33:39;;;;;;;26.80;12.52;;;-1.70;99.90;;;;;;5089970;28;20518;-42
2023/01/23 05:36:05;;;;;;;27.80;13.52;;;-1.70;99.90;;;;;;5088874;28;20073;-41
2023/01/23 05:38:31;;;;;;;30.70;13.82;;;-1.70;99.90;;;;;;5090484;28;20107;-40
2023/01/23 05:40:56;;;;;;;29.65;13.50;;;-1.70;99.90;;;;;;5090909;28;20094;-38
2023/01/23 05:43:22;;;;;;;36.40;14.23;;;-1.70;99.90;;;;;;5091303;28;20062;-37
2023/01/23 05:45:48;;;;;;;26.42;11.35;;;-1.70;99.90;;;;;;5086916;28;20107;-37
2023/01/23 05:48:13;;;;;;;33.92;13.02;;;-1.70;99.90;;;;;;5092187;28;20080;-40
2023/01/23 05:50:39;;;;;;;22.63;10.68;;;-1.70;99.90;;;;;;5094061;28;20027;-37
2023/01/23 05:53:05;;;;;;;22.60;10.63;;;-1.70;99.90;;;;;;5089867;28;20032;-41
2023/01/23 05:55:31;;;;;;;26.60;12.52;;;-1.70;99.90;;;;;;5083800;28;20115;-42
2023/01/23 05:57:56;;;;;;;27.00;12.27;;;-1.60;99.90;;;;;;5095897;28;20042;-40
2023/01/23 06:00:22;;;;;;;24.42;11.90;;;-1.60;99.90;;;;;;5090452;28;20470;-42
2023/01/23 06:02:47;;;;;;;29.35;10.82;;;-1.60;99.90;;;;;;5087060;28;20040;-39
2023/01/23 06:05:13;;;;;;;24.73;11.63;;;-1.60;99.90;;;;;;5087295;28;20043;-40
2023/01/23 06:07:39;;;;;;;23.75;10.80;;;-1.60;99.90;;;;;;5083585;28;20512;-41
2023/01/23 06:10:06;;;;;;;23.35;11.15;;;-1.50;99.90;;;;;;5091454;28;20027;-36
2023/01/23 06:12:31;;;;;;;26.55;11.13;;;-1.50;99.90;;;;;;5088759;28;20104;-37
2023/01/23 06:14:57;;;;;;;26.02;10.77;;;-1.50;99.90;;;;;;5094248;28;20375;-36
2023/01/23 06:17:22;;;;;;;21.52;9.70;;;-1.50;99.90;;;;;;5088503;28;20024;-41
2023/01/23 06:19:48;;;;;;;23.40;11.35;;;-1.50;99.90;;;;;;5091722;28;20025;-40
2023/01/23 06:22:14;;;;;;;19.77;9.23;;;-1.50;99.90;;;;;;5091339;28;20035;-42
2023/01/23 06:24:39;;;;;;;21.92;9.45;;;-1.40;99.90;;;;;;5090193;28;20063;-37
2023/01/23 06:27:08;;;;;;;19.95;10.82;;;-1.40;99.90;;;;;;5086097;28;20035;-41
2023/01/23 06:29:34;;;;;;;26.17;11.32;;;-1.40;99.90;;;;;;5093909;28;20032;-40
2023/01/23 06:32:00;;;;;;;21.55;11.10;;;-1.40;99.90;;;;;;5086913;28;20040;-39
2023/01/23 06:34:26;;;;;;;20.05;8.95;;;-1.40;99.90;;;;;;5085535;28;20443;-39
2023/01/23 06:36:51;;;;;;;22.95;10.68;;;-1.40;99.90;;;;;;5082295;28;20057;-37
2023/01/23 06:39:17;;;;;;;20.23;10.43;;;-1.40;99.90;;;;;;5092301;28;20054;-42
2023/01/23 06:41:43;;;;;;;18.77;10.20;;;-1.30;99.90;;;;;;5089161;28;20100;-41
2023/01/23 06:44:09;;;;;;;18.15;9.52;;;-1.40;99.90;;;;;;5088107;28;21411;-41
2023/01/23 06:46:34;;;;;;;23.88;11.98;;;-1.30;99.90;;;;;;5084676;28;20028;-41
2023/01/23 06:49:00;;;;;;;24.48;11.20;;;-1.30;99.90;;;;;;5086693;28;20050;-40
2023/01/23 06:51:26;;;;;;;23.92;11.75;;;-1.30;99.90;;;;;;5069713;28;20480;-38
2023/01/23 06:53:51;;;;;;;20.10;9.95;;;-1.20;99.90;;;;;;5086113;28;20489;-42
2023/01/23 06:56:17;;;;;;;21.10;10.93;;;-1.30;99.90;;;;;;5085951;28;20047;-41
2023/01/23 06:58:44;;;;;;;22.52;11.57;;;-1.30;99.90;;;;;;5093008;28;20027;-40
2023/01/23 07:01:12;;;;;;;23.15;10.80;;;-1.30;99.90;;;;;;5088427;28;20052;-39
2023/01/23 07:03:38;;;;;;;19.40;9.70;;;-1.20;99.90;;;;;;5076456;28;20081;-38
2023/01/23 07:06:05;;;;;;;23.20;11.43;;;-1.20;99.90;;;;;;5088445;28;20063;-40
2023/01/23 07:08:32;;;;;;;20.65;10.75;;;-1.30;99.90;;;;;;5091223;28;20732;-41
2023/01/23 07:10:58;;;;;;;21.00;10.45;;;-1.20;99.90;;;;;;5064506;28;20047;-36
2023/01/23 07:13:25;;;;;;;25.83;10.80;;;-1.20;99.90;;;;;;5065033;28;20547;-38
2023/01/23 07:15:50;;;;;;;23.40;13.15;;;-1.20;99.90;;;;;;5070837;28;20470;-38
2023/01/23 07:18:16;;;;;;;23.63;11.75;;;-1.20;99.90;;;;;;5089590;28;20128;-40
2023/01/23 07:20:45;;;;;;;20.05;9.45;;;-1.20;99.90;;;;;;5090890;28;20024;-42
2023/01/23 07:23:11;;;;;;;20.27;10.05;;;-1.20;99.90;;;;;;5094942;28;20024;-35
2023/01/23 07:25:36;;;;;;;24.70;13.60;;;-1.10;99.90;;;;;;5087345;28;20054;-40
2023/01/23 07:28:03;;;;;;;21.25;10.95;;;-1.10;99.90;;;;;;5094032;28;20485;-41
2023/01/23 07:30:31;;;;;;;21.20;11.82;;;-1.10;99.90;;;;;;5100144;28;20047;-39
2023/01/23 07:32:57;;;;;;;22.65;11.10;;;-1.10;99.90;;;;;;5090655;28;20073;-40
2023/01/23 07:35:23;;;;;;;24.23;12.48;;;-1.10;99.90;;;;;;5098401;28;20036;-41
2023/01/23 07:37:49;;;;;;;25.98;12.52;;;-1.10;99.90;;;;;;5087510;28;20020;-39
2023/01/23 07:40:15;;;;;;;23.75;10.25;;;-1.10;99.90;;;;;;5093494;28;20043;-39
2023/01/23 07:42:41;;;;;;;27.08;13.13;;;-1.10;99.90;;;;;;5097572;28;20058;-41
2023/01/23 07:45:08;;;;;;;21.90;11.15;;;-1.10;99.90;;;;;;5098505;28;20369;-39
2023/01/23 07:47:35;;;;;;;26.17;12.85;;;-1.10;99.90;;;;;;5087060;28;20489;-42
2023/01/23 07:50:01;;;;;;;25.17;12.80;;;-1.10;99.90;;;;;;5095546;28;20404;-41
2023/01/23 07:52:26;;;;;;;30.70;13.18;;;-1.10;99.90;;;;;;5087940;28;20038;-38
2023/01/23 07:54:52;;;;;;;27.50;12.85;;;-1.00;99.90;;;;;;5089484;28;20039;-42
2023/01/23 07:57:17;;;;;;;29.00;14.80;;;-1.00;99.90;;;;;;5088759;28;20405;-42
2023/01/23 07:59:43;;;;;;;30.20;14.00;;;-1.00;99.90;;;;;;5091767;28;20021;-42
2023/01/23 08:02:09;;;;;;;28.60;13.55;;;-1.00;99.90;;;;;;5091080;28;20387;-41
2023/01/23 08:04:35;;;;;;;26.35;12.57;;;-0.90;99.90;;;;;;5088159;28;20039;-40
2023/01/23 08:07:01;;;;;;;31.30;15.60;;;-0.90;99.90;;;;;;5065103;28;20088;-37
2023/01/23 08:09:27;;;;;;;31.00;14.60;;;-0.90;99.90;;;;;;5091899;28;20096;-41
2023/01/23 08:11:52;;;;;;;30.02;14.80;;;-0.90;99.90;;;;;;5090960;28;20036;-41
2023/01/23 08:14:18;;;;;;;31.80;13.93;;;-0.90;99.90;;;;;;5090168;28;20495;-42
2023/01/23 08:16:48;;;;;;;32.25;14.52;;;-0.90;99.90;;;;;;5083585;28;20401;-42
2023/01/23 08:19:13;;;;;;;28.25;12.00;;;-0.90;99.90;;;;;;5085737;28;20811;-39
2023/01/23 08:21:39;;;;;;;26.48;11.05;;;-0.90;99.90;;;;;;5070437;28;20507;-42
2023/01/23 08:24:05;;;;;;;25.13;12.80;;;-0.90;99.90;;;;;;5092376;28;20032;-42
2023/01/23 08:26:30;;;;;;;33.65;13.25;;;-0.90;99.90;;;;;;5086340;28;20115;-42
2023/01/23 08:28:56;;;;;;;28.85;13.65;;;-0.90;99.90;;;;;;5089679;28;20036;-41
2023/01/23 08:31:22;;;;;;;29.42;15.20;;;-0.90;99.90;;;;;;5092995;28;20481;-37
2023/01/23 08:33:47;;;;;;;27.15;12.82;;;-0.90;99.90;;;;;;5090934;28;20110;-41
2023/01/23 08:36:13;;;;;;;31.17;14.38;;;-0.80;99.90;;;;;;5093662;28;20028;-42
2023/01/23 08:38:39;;;;;;;29.45;13.30;;;-0.80;99.90;;;;;;5089977;28;20446;-41
2023/01/23 08:41:05;;;;;;;28.02;12.15;;;-0.80;99.90;;;;;;5092273;28;20480;-42
2023/01/23 08:43:31;;;;;;;26.42;11.77;;;-0.80;99.90;;;;;;5094558;28;20058;-41
2023/01/23 08:45:57;;;;;;;23.38;11.15;;;-0.70;99.90;;;;;;5090072;28;20511;-42
2023/01/23 08:48:25;;;;;;;27.10;13.88;;;-0.70;99.90;;;;;;5088164;28;20160;-42
2023/01/23 08:50:56;;;;;;;24.50;11.50;;;-0.70;99.90;;;;;;5090405;28;20032;-40
2023/01/23 08:53:22;;;;;;;28.58;12.55;;;-0.70;99.90;;;;;;5086647;28;20032;-38
2023/01/23 08:55:48;;;;;;;24.92;12.52;;;-0.70;99.90;;;;;;5091731;28;20185;-40
2023/01/23 08:58:13;;;;;;;29.98;12.85;;;-0.70;99.90;;;;;;5093555;28;20034;-43
2023/01/23 09:00:39;;;;;;;28.95;12.68;;;-0.70;99.90;;;;;;5099180;28;20017;-42
2023/01/23 09:03:05;;;;;;;30.88;12.85;;;-0.70;99.90;;;;;;5093769;28;20052;-38
2023/01/23 09:05:31;;;;;;;26.67;11.23;;;-0.70;99.90;;;;;;5097603;28;20476;-42
2023/01/23 09:07:58;;;;;;;32.63;13.85;;;-0.70;99.90;;;;;;5089866;28;20059;-39
2023/01/23 09:10:24;;;;;;;24.35;13.13;;;-0.70;99.90;;;;;;5100997;28;20504;-42
2023/01/23 09:12:51;;;;;;;27.45;11.25;;;-0.60;99.90;;;;;;5094345;28;20261;-40
2023/01/23 09:15:17;;;;;;;31.70;13.43;;;-0.60;99.90;;;;;;5088890;28;20348;-40
2023/01/23 09:17:43;;;;;;;26.17;13.30;;;-0.60;99.90;;;;;;5090826;28;20024;-41
2023/01/23 09:20:09;;;;;;;23.42;10.93;;;-0.60;99.90;;;;;;5092081;28;20024;-42
2023/01/23 09:22:34;;;;;;;27.23;12.77;;;-0.60;99.90;;;;;;5096897;28;20020;-42
2023/01/23 09:25:00;;;;;;;23.27;12.27;;;-0.60;99.90;;;;;;5094175;28;20036;-41
2023/01/23 09:27:26;;;;;;;28.52;12.52;;;-0.60;99.90;;;;;;5064318;28;20024;-39
2023/01/23 09:29:51;;;;;;;25.40;11.63;;;-0.50;99.90;;;;;;5090690;28;20513;-41
2023/01/23 09:32:17;;;;;;;31.67;14.75;;;-0.50;99.90;;;;;;5085233;28;20039;-41
2023/01/23 09:34:42;;;;;;;31.60;13.18;;;-0.50;99.90;;;;;;5083874;28;20079;-41
2023/01/23 09:37:08;;;;;;;31.67;14.18;;;-0.50;99.90;;;;;;5091685;28;20500;-42
2023/01/23 09:39:34;;;;;;;25.15;13.07;;;-0.50;99.90;;;;;;5084950;28;20106;-43
2023/01/23 09:42:09;;;;;;;30.05;13.88;;;-0.50;99.90;;;;;;5099060;28;20512;-40
2023/01/23 09:44:43;;;;;;;28.25;12.43;;;-0.50;99.90;;;;;;5082703;28;20124;-42
2023/01/23 09:47:22;;;;;;;29.48;13.43;;;-0.40;99.90;;;;;;5094680;28;20035;-42
2023/01/23 09:49:54;;;;;;;30.90;13.25;;;-0.40;99.90;;;;;;5089970;28;20030;-40
2023/01/23 09:52:43;;;;;;;32.33;14.45;;;-0.40;99.90;;;;;;5094326;28;20024;-42
2023/01/23 09:55:23;;;;;;;29.90;13.80;;;-0.40;99.90;;;;;;5090748;28;20083;-42
2023/01/23 09:57:55;;;;;;;26.88;11.57;;;-0.40;99.90;;;;;;5094745;28;20067;-42
2023/01/23 10:00:26;;;;;;;36.17;15.65;;;-0.40;99.90;;;;;;5094864;28;20089;-41
2023/01/23 10:02:53;;;;;;;32.65;15.23;;;-0.40;99.90;;;;;;5075773;28;20039;-41
2023/01/23 10:05:34;;;;;;;30.40;14.30;;;-0.40;99.90;;;;;;5090037;28;20497;-41
2023/01/23 10:08:26;;;;;;;29.02;13.05;;;-0.40;99.90;;;;;;5086317;28;20044;-42
2023/01/23 10:11:07;;;;;;;29.10;13.25;;;-0.40;99.90;;;;;;5091958;28;20036;-39
2023/01/23 10:14:05;;;;;;;29.63;12.68;;;-0.40;99.90;;;;;;5098510;28;20062;-42
2023/01/23 10:16:43;;;;;;;29.38;13.18;;;-0.40;99.90;;;;;;5092608;28;20099;-43
2023/01/23 10:19:23;;;;;;;31.20;13.23;;;-0.30;99.90;;;;;;5089400;28;20032;-41
2023/01/23 10:22:00;;;;;;;27.08;12.70;;;-0.30;99.90;;;;;;5092465;28;20499;-42
2023/01/23 10:24:44;;;;;;;28.33;12.70;;;-0.30;99.90;;;;;;5085437;28;20024;-36
2023/01/23 10:27:32;;;;;;;23.15;12.13;;;-0.30;99.90;;;;;;5087884;28;20476;-40
2023/01/23 10:30:02;;;;;;;28.10;11.98;;;-0.30;99.90;;;;;;5092419;28;20028;-39
2023/01/23 10:32:30;;;;;;;26.63;12.32;;;-0.30;99.90;;;;;;5089748;28;20039;-38
2023/01/23 10:35:23;;;;;;;31.35;13.77;;;-0.30;99.90;;;;;;5068688;28;20024;-41
2023/01/23 10:38:01;;;;;;;32.42;13.93;;;-0.30;99.90;;;;;;5076696;28;20480;-41
2023/01/23 10:43:22;;;;;;;26.45;12.90;;;-0.20;99.90;;;;;;5085478;28;20043;-37
2023/01/23 10:45:48;;;;;;;29.90;14.30;;;-0.30;99.90;;;;;;5096104;28;20412;-42
2023/01/23 10:48:28;;;;;;;30.30;13.38;;;-0.30;99.90;;;;;;5091581;28;20439;-40
2023/01/23 10:50:54;;;;;;;30.00;14.57;;;-0.30;99.90;;;;;;5101135;28;20076;-42
2023/01/23 10:53:20;;;;;;;32.97;14.55;;;-0.20;99.90;;;;;;5078406;28;20036;-42
2023/01/23 10:55:48;;;;;;;25.17;12.40;;;-0.30;99.90;;;;;;5092972;28;20024;-42
2023/01/23 10:58:36;;;;;;;28.95;13.57;;;-0.20;99.90;;;;;;5097405;28;20024;-42
2023/01/23 11:01:04;;;;;;;27.63;13.82;;;-0.20;99.90;;;;;;5098993;28;20064;-40
2023/01/23 11:03:32;;;;;;;30.80;14.20;;;-0.20;99.90;;;;;;5096400;28;20039;-42
2023/01/23 11:06:15;;;;;;;30.40;13.63;;;-0.20;99.90;;;;;;5089796;28;20059;-39
2023/01/23 11:08:57;;;;;;;29.75;13.85;;;-0.20;99.90;;;;;;5079775;28;20067;-38
2023/01/23 11:11:24;;;;;;;30.48;14.57;;;-0.10;99.90;;;;;;5090765;28;20028;-39
2023/01/23 11:14:15;;;;;;;37.03;15.18;;;-0.10;99.90;;;;;;5099466;28;20036;-41
2023/01/23 11:16:42;;;;;;;30.98;13.38;;;-0.10;99.90;;;;;;5100479;28;20059;-40
2023/01/23 11:19:08;;;;;;;33.17;14.13;;;-0.10;99.90;;;;;;5099449;28;20390;-39
2023/01/23 11:21:58;;;;;;;29.65;13.88;;;-0.10;99.90;;;;;;5091523;28;20504;-40
2023/01/23 11:24:24;;;;;;;25.00;13.15;;;-0.10;99.90;;;;;;5048282;28;20028;-41
2023/01/23 11:27:03;;;;;;;27.92;13.68;;;0.00;99.90;;;;;;5096749;28;20646;-41
2023/01/23 11:29:41;;;;;;;27.92;13.15;;;0.00;99.90;;;;;;5097640;28;20031;-39
2023/01/23 11:32:12;;;;;;;31.52;14.35;;;0.00;99.90;;;;;;5094257;28;20036;-39
2023/01/23 11:34:42;;;;;;;28.08;13.60;;;0.00;99.90;;;;;;5096373;28;20012;-39
2023/01/23 11:37:15;;;;;;;31.20;14.38;;;0.10;99.90;;;;;;5087107;28;20442;-38
2023/01/23 11:39:47;;;;;;;28.08;13.90;;;0.00;99.90;;;;;;5099859;28;20388;-41
2023/01/23 11:42:14;;;;;;;28.02;14.10;;;0.00;99.90;;;;;;5096738;28;20484;-42
2023/01/23 11:44:41;;;;;;;29.45;12.75;;;0.10;99.90;;;;;;5100871;28;20477;-39
2023/01/23 11:47:36;;;;;;;26.75;11.95;;;0.10;99.90;;;;;;5082248;28;20033;-40
2023/01/23 11:50:16;;;;;;;32.58;13.75;;;0.10;99.90;;;;;;5086940;28;20044;-41
2023/01/23 11:53:19;;;;;;;37.60;14.82;;;0.20;99.90;;;;;;5087093;28;20024;-41
2023/01/23 11:56:08;;;;;;;29.38;13.93;;;0.20;99.90;;;;;;5089272;28;20401;-42
2023/01/23 11:58:37;;;;;;;31.33;13.30;;;0.20;99.90;;;;;;5081538;28;20027;-41
2023/01/23 12:01:35;;;;;;;31.88;15.15;;;0.20;99.90;;;;;;5081053;28;20115;-40
2023/01/23 12:04:34;;;;;;;34.00;14.77;;;0.30;99.90;;;;;;5089394;28;20081;-40
2023/01/23 12:07:25;;;;;;;28.88;12.60;;;0.30;99.90;;;;;;5088301;28;20028;-41
2023/01/23 12:10:15;;;;;;;31.20;14.85;;;0.30;99.90;;;;;;5083529;28;20071;-41
2023/01/23 12:12:46;;;;;;;32.53;13.40;;;0.30;99.90;;;;;;5086733;28;20064;-40
2023/01/23 12:15:17;;;;;;;30.98;14.18;;;0.30;99.90;;;;;;5081694;28;20536;-40
2023/01/23 12:17:52;;;;;;;32.22;15.10;;;0.30;99.90;;;;;;5086614;28;20026;-41
2023/01/23 12:20:39;;;;;;;27.17;13.82;;;0.30;99.90;;;;;;5088530;28;20107;-39
2023/01/23 12:23:24;;;;;;;27.58;13.65;;;0.30;99.90;;;;;;5087545;28;20034;-39
2023/01/23 12:26:14;;;;;;;30.25;14.15;;;0.40;99.90;;;;;;5096708;28;20028;-40
2023/01/23 12:28:54;;;;;;;27.48;13.68;;;0.40;99.90;;;;;;5097713;28;20030;-39
2023/01/23 12:31:42;;;;;;;28.33;12.75;;;0.40;99.90;;;;;;5093620;28;20055;-40
2023/01/23 12:34:18;;;;;;;25.42;13.32;;;0.40;99.90;;;;;;5088235;28;20540;-40
2023/01/23 12:37:23;;;;;;;24.13;12.40;;;0.50;99.90;;;;;;5071036;28;20063;-41
2023/01/23 12:40:08;;;;;;;24.52;12.60;;;0.50;99.90;;;;;;5085471;28;20119;-37
2023/01/23 12:42:43;;;;;;;31.20;13.88;;;0.50;99.90;;;;;;5081532;28;20431;-41
2023/01/23 12:45:21;;;;;;;29.40;13.68;;;0.50;99.90;;;;;;5070874;28;20028;-41
2023/01/23 12:48:12;;;;;;;29.05;14.90;;;0.50;99.90;;;;;;5086721;28;20051;-42
2023/01/23 12:50:48;;;;;;;31.48;13.18;;;0.50;99.90;;;;;;5091985;28;21090;-41
2023/01/23 12:53:16;;;;;;;31.38;13.88;;;0.50;99.90;;;;;;5083688;28;20074;-42